sensor_id;sensor_type;location;lat;lon;timestamp;P1;durP1;ratioP1;P2;durP2;ratioP2
40515;SDS011;26216;53.724;9.898;2023-05-14T00:02:17;3.45;;;2.38;;
40515;SDS011;26216;53.724;9.898;2023-05-14T00:04:43;3.03;;;2.17;;
40515;SDS011;26216;53.724;9.898;2023-05-14T00:07:09;3.45;;;2.30;;
40515;SDS011;26216;53.724;9.898;2023-05-14T00:09:35;3.00;;;2.00;;
40515;SDS011;26216;53.724;9.898;2023-05-14T00:12:02;2.67;;;2.05;;
40515;SDS011;26216;53.724;9.898;2023-05-14T00:14:28;3.20;;;2.10;;
40515;SDS011;26216;53.724;9.898;2023-05-14T00:16:53;3.58;;;2.47;;
40515;SDS011;26216;53.724;9.898;2023-05-14T00:19:19;2.92;;;2.30;;
40515;SDS011;26216;53.724;9.898;2023-05-14T00:21:46;3.67;;;2.20;;
40515;SDS011;26216;53.724;9.898;2023-05-14T00:24:12;3.20;;;2.15;;
40515;SDS011;26216;53.724;9.898;2023-05-14T00:26:38;3.20;;;2.17;;
40515;SDS011;26216;53.724;9.898;2023-05-14T00:29:04;2.95;;;2.03;;
40515;SDS011;26216;53.724;9.898;2023-05-14T00:31:30;2.70;;;1.80;;
40515;SDS011;26216;53.724;9.898;2023-05-14T00:33:56;2.60;;;2.15;;
40515;SDS011;26216;53.724;9.898;2023-05-14T00:36:22;3.55;;;2.08;;
40515;SDS011;26216;53.724;9.898;2023-05-14T00:38:48;2.78;;;2.25;;
40515;SDS011;26216;53.724;9.898;2023-05-14T00:41:14;2.78;;;2.00;;
40515;SDS011;26216;53.724;9.898;2023-05-14T00:43:39;3.85;;;2.17;;
40515;SDS011;26216;53.724;9.898;2023-05-14T00:46:05;2.83;;;2.13;;
40515;SDS011;26216;53.724;9.898;2023-05-14T00:48:31;3.65;;;2.25;;
40515;SDS011;26216;53.724;9.898;2023-05-14T00:50:58;2.63;;;2.05;;
40515;SDS011;26216;53.724;9.898;2023-05-14T00:53:31;3.42;;;2.38;;
40515;SDS011;26216;53.724;9.898;2023-05-14T00:55:57;2.72;;;2.05;;
40515;SDS011;26216;53.724;9.898;2023-05-14T00:58:23;2.88;;;2.20;;
40515;SDS011;26216;53.724;9.898;2023-05-14T01:00:49;3.17;;;2.22;;
40515;SDS011;26216;53.724;9.898;2023-05-14T01:03:16;4.13;;;2.65;;
40515;SDS011;26216;53.724;9.898;2023-05-14T01:05:59;3.95;;;2.63;;
40515;SDS011;26216;53.724;9.898;2023-05-14T01:09:23;3.80;;;2.40;;
40515;SDS011;26216;53.724;9.898;2023-05-14T01:16:49;3.55;;;2.30;;
40515;SDS011;26216;53.724;9.898;2023-05-14T01:19:21;3.00;;;2.28;;
40515;SDS011;26216;53.724;9.898;2023-05-14T01:21:58;3.80;;;2.70;;
40515;SDS011;26216;53.724;9.898;2023-05-14T01:24:24;3.75;;;2.70;;
40515;SDS011;26216;53.724;9.898;2023-05-14T01:26:49;3.42;;;2.50;;
40515;SDS011;26216;53.724;9.898;2023-05-14T01:29:21;3.13;;;2.30;;
40515;SDS011;26216;53.724;9.898;2023-05-14T01:31:47;4.50;;;2.70;;
40515;SDS011;26216;53.724;9.898;2023-05-14T01:34:15;3.00;;;2.40;;
40515;SDS011;26216;53.724;9.898;2023-05-14T01:36:48;3.30;;;2.60;;
40515;SDS011;26216;53.724;9.898;2023-05-14T01:39:17;4.65;;;2.47;;
40515;SDS011;26216;53.724;9.898;2023-05-14T01:41:44;3.35;;;2.53;;
40515;SDS011;26216;53.724;9.898;2023-05-14T01:44:11;3.17;;;2.30;;
40515;SDS011;26216;53.724;9.898;2023-05-14T01:46:37;3.50;;;2.60;;
40515;SDS011;26216;53.724;9.898;2023-05-14T01:49:03;3.13;;;2.38;;
40515;SDS011;26216;53.724;9.898;2023-05-14T01:51:29;3.47;;;2.70;;
40515;SDS011;26216;53.724;9.898;2023-05-14T01:53:55;4.35;;;2.50;;
40515;SDS011;26216;53.724;9.898;2023-05-14T01:56:21;4.18;;;2.75;;
40515;SDS011;26216;53.724;9.898;2023-05-14T01:58:48;4.32;;;2.80;;
40515;SDS011;26216;53.724;9.898;2023-05-14T02:01:14;3.13;;;2.53;;
40515;SDS011;26216;53.724;9.898;2023-05-14T02:03:39;3.20;;;2.40;;
40515;SDS011;26216;53.724;9.898;2023-05-14T02:06:05;4.18;;;2.65;;
40515;SDS011;26216;53.724;9.898;2023-05-14T02:08:31;3.55;;;2.85;;
40515;SDS011;26216;53.724;9.898;2023-05-14T02:10:57;4.88;;;2.50;;
40515;SDS011;26216;53.724;9.898;2023-05-14T02:13:23;4.28;;;2.72;;
40515;SDS011;26216;53.724;9.898;2023-05-14T02:15:50;3.30;;;2.60;;
40515;SDS011;26216;53.724;9.898;2023-05-14T02:18:17;3.25;;;2.70;;
40515;SDS011;26216;53.724;9.898;2023-05-14T02:20:43;3.67;;;2.60;;
40515;SDS011;26216;53.724;9.898;2023-05-14T02:23:09;3.22;;;2.47;;
40515;SDS011;26216;53.724;9.898;2023-05-14T02:25:35;4.53;;;2.60;;
40515;SDS011;26216;53.724;9.898;2023-05-14T02:28:01;3.35;;;2.45;;
40515;SDS011;26216;53.724;9.898;2023-05-14T02:30:27;3.88;;;2.58;;
40515;SDS011;26216;53.724;9.898;2023-05-14T02:32:54;2.60;;;2.00;;
40515;SDS011;26216;53.724;9.898;2023-05-14T02:35:20;2.67;;;2.20;;
40515;SDS011;26216;53.724;9.898;2023-05-14T02:37:46;3.70;;;2.45;;
40515;SDS011;26216;53.724;9.898;2023-05-14T02:40:11;3.53;;;2.30;;
40515;SDS011;26216;53.724;9.898;2023-05-14T02:42:37;3.75;;;2.40;;
40515;SDS011;26216;53.724;9.898;2023-05-14T02:45:03;3.05;;;2.42;;
40515;SDS011;26216;53.724;9.898;2023-05-14T02:47:30;2.60;;;2.28;;
40515;SDS011;26216;53.724;9.898;2023-05-14T02:49:56;4.28;;;2.85;;
40515;SDS011;26216;53.724;9.898;2023-05-14T02:52:22;2.90;;;2.28;;
40515;SDS011;26216;53.724;9.898;2023-05-14T02:54:47;3.55;;;2.63;;
40515;SDS011;26216;53.724;9.898;2023-05-14T02:57:13;3.45;;;2.65;;
40515;SDS011;26216;53.724;9.898;2023-05-14T02:59:39;4.63;;;2.55;;
40515;SDS011;26216;53.724;9.898;2023-05-14T03:02:05;3.00;;;2.45;;
40515;SDS011;26216;53.724;9.898;2023-05-14T03:04:31;2.50;;;2.10;;
40515;SDS011;26216;53.724;9.898;2023-05-14T03:06:57;3.53;;;2.40;;
40515;SDS011;26216;53.724;9.898;2023-05-14T03:09:22;4.38;;;2.28;;
40515;SDS011;26216;53.724;9.898;2023-05-14T03:11:49;3.28;;;2.20;;
40515;SDS011;26216;53.724;9.898;2023-05-14T03:14:14;5.70;;;2.22;;
40515;SDS011;26216;53.724;9.898;2023-05-14T03:16:40;2.90;;;2.15;;
40515;SDS011;26216;53.724;9.898;2023-05-14T03:19:06;3.25;;;2.30;;
40515;SDS011;26216;53.724;9.898;2023-05-14T03:21:33;5.65;;;2.20;;
40515;SDS011;26216;53.724;9.898;2023-05-14T03:23:59;3.53;;;2.10;;
40515;SDS011;26216;53.724;9.898;2023-05-14T03:26:25;2.58;;;2.08;;
40515;SDS011;26216;53.724;9.898;2023-05-14T03:28:51;3.60;;;2.25;;
40515;SDS011;26216;53.724;9.898;2023-05-14T03:31:17;2.60;;;2.15;;
40515;SDS011;26216;53.724;9.898;2023-05-14T03:33:43;2.80;;;2.03;;
40515;SDS011;26216;53.724;9.898;2023-05-14T03:36:09;2.78;;;2.20;;
40515;SDS011;26216;53.724;9.898;2023-05-14T03:38:35;2.67;;;2.30;;
40515;SDS011;26216;53.724;9.898;2023-05-14T03:41:01;2.92;;;2.42;;
40515;SDS011;26216;53.724;9.898;2023-05-14T03:43:26;4.03;;;2.63;;
40515;SDS011;26216;53.724;9.898;2023-05-14T03:45:52;3.00;;;2.55;;
40515;SDS011;26216;53.724;9.898;2023-05-14T03:48:18;3.20;;;2.65;;
40515;SDS011;26216;53.724;9.898;2023-05-14T03:50:44;2.90;;;2.40;;
40515;SDS011;26216;53.724;9.898;2023-05-14T03:53:10;5.07;;;2.70;;
40515;SDS011;26216;53.724;9.898;2023-05-14T03:55:36;2.60;;;2.10;;
40515;SDS011;26216;53.724;9.898;2023-05-14T03:58:02;2.95;;;2.15;;
40515;SDS011;26216;53.724;9.898;2023-05-14T04:00:31;2.90;;;2.00;;
40515;SDS011;26216;53.724;9.898;2023-05-14T04:02:57;3.03;;;2.42;;
40515;SDS011;26216;53.724;9.898;2023-05-14T04:05:23;3.15;;;2.40;;
40515;SDS011;26216;53.724;9.898;2023-05-14T04:07:49;3.35;;;2.42;;
40515;SDS011;26216;53.724;9.898;2023-05-14T04:10:16;2.60;;;2.40;;
40515;SDS011;26216;53.724;9.898;2023-05-14T04:12:42;3.08;;;2.30;;
40515;SDS011;26216;53.724;9.898;2023-05-14T04:15:08;3.13;;;2.40;;
40515;SDS011;26216;53.724;9.898;2023-05-14T04:17:34;2.72;;;2.13;;
40515;SDS011;26216;53.724;9.898;2023-05-14T04:20:00;3.10;;;2.63;;
40515;SDS011;26216;53.724;9.898;2023-05-14T04:22:26;3.03;;;2.50;;
40515;SDS011;26216;53.724;9.898;2023-05-14T04:24:52;3.83;;;2.30;;
40515;SDS011;26216;53.724;9.898;2023-05-14T04:27:20;3.25;;;2.65;;
40515;SDS011;26216;53.724;9.898;2023-05-14T04:29:47;3.55;;;2.38;;
40515;SDS011;26216;53.724;9.898;2023-05-14T04:32:13;3.35;;;2.67;;
40515;SDS011;26216;53.724;9.898;2023-05-14T04:34:39;3.20;;;2.45;;
40515;SDS011;26216;53.724;9.898;2023-05-14T04:37:05;3.08;;;2.78;;
40515;SDS011;26216;53.724;9.898;2023-05-14T04:39:31;3.05;;;2.40;;
40515;SDS011;26216;53.724;9.898;2023-05-14T04:41:57;3.20;;;2.55;;
40515;SDS011;26216;53.724;9.898;2023-05-14T04:44:22;3.13;;;2.67;;
40515;SDS011;26216;53.724;9.898;2023-05-14T04:46:48;3.72;;;2.17;;
40515;SDS011;26216;53.724;9.898;2023-05-14T04:49:14;3.70;;;2.70;;
40515;SDS011;26216;53.724;9.898;2023-05-14T04:51:40;4.63;;;2.90;;
40515;SDS011;26216;53.724;9.898;2023-05-14T04:54:06;3.65;;;2.40;;
40515;SDS011;26216;53.724;9.898;2023-05-14T04:56:31;3.83;;;2.70;;
40515;SDS011;26216;53.724;9.898;2023-05-14T04:58:57;3.00;;;2.45;;
40515;SDS011;26216;53.724;9.898;2023-05-14T05:01:23;3.03;;;2.58;;
40515;SDS011;26216;53.724;9.898;2023-05-14T05:03:49;4.38;;;2.40;;
40515;SDS011;26216;53.724;9.898;2023-05-14T05:06:15;4.75;;;3.35;;
40515;SDS011;26216;53.724;9.898;2023-05-14T05:08:41;3.33;;;2.75;;
40515;SDS011;26216;53.724;9.898;2023-05-14T05:11:07;3.88;;;2.53;;
40515;SDS011;26216;53.724;9.898;2023-05-14T05:13:32;2.97;;;2.20;;
40515;SDS011;26216;53.724;9.898;2023-05-14T05:15:58;2.88;;;2.30;;
40515;SDS011;26216;53.724;9.898;2023-05-14T05:18:24;3.80;;;2.63;;
40515;SDS011;26216;53.724;9.898;2023-05-14T05:20:50;2.78;;;2.28;;
40515;SDS011;26216;53.724;9.898;2023-05-14T05:23:16;3.00;;;2.60;;
40515;SDS011;26216;53.724;9.898;2023-05-14T05:25:41;3.20;;;2.70;;
40515;SDS011;26216;53.724;9.898;2023-05-14T05:28:07;3.75;;;2.92;;
40515;SDS011;26216;53.724;9.898;2023-05-14T05:30:33;3.92;;;2.40;;
40515;SDS011;26216;53.724;9.898;2023-05-14T05:32:59;3.28;;;2.50;;
40515;SDS011;26216;53.724;9.898;2023-05-14T05:35:25;4.85;;;3.35;;
40515;SDS011;26216;53.724;9.898;2023-05-14T05:37:51;3.85;;;2.75;;
40515;SDS011;26216;53.724;9.898;2023-05-14T05:40:16;3.25;;;2.67;;
40515;SDS011;26216;53.724;9.898;2023-05-14T05:42:43;2.80;;;2.17;;
40515;SDS011;26216;53.724;9.898;2023-05-14T05:45:09;2.88;;;2.30;;
40515;SDS011;26216;53.724;9.898;2023-05-14T05:47:35;2.95;;;2.60;;
40515;SDS011;26216;53.724;9.898;2023-05-14T05:50:00;3.50;;;2.20;;
40515;SDS011;26216;53.724;9.898;2023-05-14T05:52:26;3.75;;;2.40;;
40515;SDS011;26216;53.724;9.898;2023-05-14T05:54:52;3.95;;;2.13;;
40515;SDS011;26216;53.724;9.898;2023-05-14T05:57:18;3.03;;;2.50;;
40515;SDS011;26216;53.724;9.898;2023-05-14T05:59:45;2.78;;;2.15;;
40515;SDS011;26216;53.724;9.898;2023-05-14T06:02:11;3.35;;;2.67;;
40515;SDS011;26216;53.724;9.898;2023-05-14T06:04:39;3.75;;;2.40;;
40515;SDS011;26216;53.724;9.898;2023-05-14T06:07:04;4.18;;;2.10;;
40515;SDS011;26216;53.724;9.898;2023-05-14T06:09:30;2.38;;;1.90;;
40515;SDS011;26216;53.724;9.898;2023-05-14T06:11:56;2.92;;;2.35;;
40515;SDS011;26216;53.724;9.898;2023-05-14T06:14:22;2.88;;;2.35;;
40515;SDS011;26216;53.724;9.898;2023-05-14T06:16:48;3.05;;;2.03;;
40515;SDS011;26216;53.724;9.898;2023-05-14T06:19:13;2.70;;;2.20;;
40515;SDS011;26216;53.724;9.898;2023-05-14T06:21:39;2.50;;;2.00;;
40515;SDS011;26216;53.724;9.898;2023-05-14T06:24:05;3.13;;;2.20;;
40515;SDS011;26216;53.724;9.898;2023-05-14T06:26:31;3.33;;;2.20;;
40515;SDS011;26216;53.724;9.898;2023-05-14T06:28:57;2.20;;;1.98;;
40515;SDS011;26216;53.724;9.898;2023-05-14T06:31:23;3.25;;;2.22;;
40515;SDS011;26216;53.724;9.898;2023-05-14T06:33:49;3.78;;;1.88;;
40515;SDS011;26216;53.724;9.898;2023-05-14T06:36:15;2.40;;;2.10;;
40515;SDS011;26216;53.724;9.898;2023-05-14T06:38:41;2.55;;;1.80;;
40515;SDS011;26216;53.724;9.898;2023-05-14T06:41:07;2.42;;;1.80;;
40515;SDS011;26216;53.724;9.898;2023-05-14T06:43:32;1.70;;;1.60;;
40515;SDS011;26216;53.724;9.898;2023-05-14T06:45:58;1.88;;;1.67;;
40515;SDS011;26216;53.724;9.898;2023-05-14T06:48:25;2.08;;;1.70;;
40515;SDS011;26216;53.724;9.898;2023-05-14T06:50:53;3.13;;;2.10;;
40515;SDS011;26216;53.724;9.898;2023-05-14T06:53:19;1.90;;;1.70;;
40515;SDS011;26216;53.724;9.898;2023-05-14T06:55:48;1.98;;;1.75;;
40515;SDS011;26216;53.724;9.898;2023-05-14T06:58:14;2.47;;;1.80;;
40515;SDS011;26216;53.724;9.898;2023-05-14T07:00:40;2.47;;;1.77;;
40515;SDS011;26216;53.724;9.898;2023-05-14T07:03:06;1.70;;;1.40;;
40515;SDS011;26216;53.724;9.898;2023-05-14T07:05:32;3.22;;;1.95;;
40515;SDS011;26216;53.724;9.898;2023-05-14T07:07:58;3.03;;;1.77;;
40515;SDS011;26216;53.724;9.898;2023-05-14T07:10:24;2.22;;;1.67;;
40515;SDS011;26216;53.724;9.898;2023-05-14T07:12:50;2.10;;;1.60;;
40515;SDS011;26216;53.724;9.898;2023-05-14T07:15:16;3.05;;;1.73;;
40515;SDS011;26216;53.724;9.898;2023-05-14T07:17:42;2.30;;;2.00;;
40515;SDS011;26216;53.724;9.898;2023-05-14T07:20:08;2.47;;;2.03;;
40515;SDS011;26216;53.724;9.898;2023-05-14T07:22:34;2.58;;;2.00;;
40515;SDS011;26216;53.724;9.898;2023-05-14T07:25:00;2.28;;;1.52;;
40515;SDS011;26216;53.724;9.898;2023-05-14T07:27:27;2.50;;;1.73;;
40515;SDS011;26216;53.724;9.898;2023-05-14T07:29:52;2.08;;;1.67;;
40515;SDS011;26216;53.724;9.898;2023-05-14T07:32:18;2.95;;;1.80;;
40515;SDS011;26216;53.724;9.898;2023-05-14T07:34:44;2.50;;;1.65;;
40515;SDS011;26216;53.724;9.898;2023-05-14T07:37:10;2.33;;;1.50;;
40515;SDS011;26216;53.724;9.898;2023-05-14T07:39:36;2.15;;;1.70;;
40515;SDS011;26216;53.724;9.898;2023-05-14T07:42:03;2.45;;;2.00;;
40515;SDS011;26216;53.724;9.898;2023-05-14T07:44:29;2.28;;;1.55;;
40515;SDS011;26216;53.724;9.898;2023-05-14T07:46:55;3.88;;;2.10;;
40515;SDS011;26216;53.724;9.898;2023-05-14T07:49:20;1.98;;;1.70;;
40515;SDS011;26216;53.724;9.898;2023-05-14T07:51:46;1.95;;;1.52;;
40515;SDS011;26216;53.724;9.898;2023-05-14T07:54:12;2.95;;;2.20;;
40515;SDS011;26216;53.724;9.898;2023-05-14T07:56:38;2.30;;;2.00;;
40515;SDS011;26216;53.724;9.898;2023-05-14T07:59:04;2.08;;;1.80;;
40515;SDS011;26216;53.724;9.898;2023-05-14T08:01:31;2.40;;;1.70;;
40515;SDS011;26216;53.724;9.898;2023-05-14T08:03:57;2.28;;;1.73;;
40515;SDS011;26216;53.724;9.898;2023-05-14T08:06:23;3.78;;;1.90;;
40515;SDS011;26216;53.724;9.898;2023-05-14T08:08:51;1.70;;;1.55;;
40515;SDS011;26216;53.724;9.898;2023-05-14T08:11:17;2.10;;;1.90;;
40515;SDS011;26216;53.724;9.898;2023-05-14T08:13:43;4.22;;;2.08;;
40515;SDS011;26216;53.724;9.898;2023-05-14T08:16:09;3.25;;;2.05;;
40515;SDS011;26216;53.724;9.898;2023-05-14T08:18:35;2.17;;;1.80;;
40515;SDS011;26216;53.724;9.898;2023-05-14T08:21:01;2.22;;;1.80;;
40515;SDS011;26216;53.724;9.898;2023-05-14T08:23:27;2.67;;;1.70;;
40515;SDS011;26216;53.724;9.898;2023-05-14T08:25:53;2.35;;;1.95;;
40515;SDS011;26216;53.724;9.898;2023-05-14T08:28:19;2.55;;;1.77;;
40515;SDS011;26216;53.724;9.898;2023-05-14T08:30:45;2.55;;;1.92;;
40515;SDS011;26216;53.724;9.898;2023-05-14T08:33:11;5.15;;;2.40;;
40515;SDS011;26216;53.724;9.898;2023-05-14T08:35:37;2.58;;;2.20;;
40515;SDS011;26216;53.724;9.898;2023-05-14T08:38:03;2.17;;;1.63;;
40515;SDS011;26216;53.724;9.898;2023-05-14T08:40:31;2.60;;;1.90;;
40515;SDS011;26216;53.724;9.898;2023-05-14T08:42:57;3.40;;;2.28;;
40515;SDS011;26216;53.724;9.898;2023-05-14T08:45:27;2.58;;;2.05;;
40515;SDS011;26216;53.724;9.898;2023-05-14T08:47:58;2.72;;;2.10;;
40515;SDS011;26216;53.724;9.898;2023-05-14T08:50:29;2.45;;;1.80;;
40515;SDS011;26216;53.724;9.898;2023-05-14T08:52:55;2.83;;;1.95;;
40515;SDS011;26216;53.724;9.898;2023-05-14T08:55:21;2.42;;;2.00;;
40515;SDS011;26216;53.724;9.898;2023-05-14T08:57:47;2.75;;;2.10;;
40515;SDS011;26216;53.724;9.898;2023-05-14T09:00:13;1.92;;;1.60;;
40515;SDS011;26216;53.724;9.898;2023-05-14T09:02:40;2.90;;;1.77;;
40515;SDS011;26216;53.724;9.898;2023-05-14T09:05:08;4.30;;;1.90;;
40515;SDS011;26216;53.724;9.898;2023-05-14T09:07:35;2.83;;;1.75;;
40515;SDS011;26216;53.724;9.898;2023-05-14T09:10:01;3.30;;;2.00;;
40515;SDS011;26216;53.724;9.898;2023-05-14T09:12:28;2.25;;;1.73;;
40515;SDS011;26216;53.724;9.898;2023-05-14T09:14:54;2.10;;;1.65;;
40515;SDS011;26216;53.724;9.898;2023-05-14T09:17:20;2.75;;;1.77;;
40515;SDS011;26216;53.724;9.898;2023-05-14T09:19:46;3.20;;;1.85;;
40515;SDS011;26216;53.724;9.898;2023-05-14T09:22:17;2.80;;;1.80;;
40515;SDS011;26216;53.724;9.898;2023-05-14T09:24:44;2.92;;;1.90;;
40515;SDS011;26216;53.724;9.898;2023-05-14T09:27:14;3.45;;;2.17;;
40515;SDS011;26216;53.724;9.898;2023-05-14T09:29:46;2.53;;;1.80;;
40515;SDS011;26216;53.724;9.898;2023-05-14T09:32:13;4.03;;;1.83;;
40515;SDS011;26216;53.724;9.898;2023-05-14T09:34:39;3.08;;;1.88;;
40515;SDS011;26216;53.724;9.898;2023-05-14T09:37:06;3.85;;;1.85;;
40515;SDS011;26216;53.724;9.898;2023-05-14T09:39:34;2.83;;;1.80;;
40515;SDS011;26216;53.724;9.898;2023-05-14T09:42:01;2.63;;;1.85;;
40515;SDS011;26216;53.724;9.898;2023-05-14T09:44:27;3.72;;;1.80;;
40515;SDS011;26216;53.724;9.898;2023-05-14T09:46:53;3.03;;;1.80;;
40515;SDS011;26216;53.724;9.898;2023-05-14T09:49:20;3.35;;;1.70;;
40515;SDS011;26216;53.724;9.898;2023-05-14T09:51:49;2.67;;;1.90;;
40515;SDS011;26216;53.724;9.898;2023-05-14T09:54:16;3.28;;;2.10;;
40515;SDS011;26216;53.724;9.898;2023-05-14T09:56:42;3.15;;;1.70;;
40515;SDS011;26216;53.724;9.898;2023-05-14T09:59:09;2.53;;;1.75;;
40515;SDS011;26216;53.724;9.898;2023-05-14T10:01:35;2.70;;;1.60;;
40515;SDS011;26216;53.724;9.898;2023-05-14T10:04:02;4.10;;;1.80;;
40515;SDS011;26216;53.724;9.898;2023-05-14T10:06:35;2.03;;;1.55;;
40515;SDS011;26216;53.724;9.898;2023-05-14T10:09:04;3.13;;;1.80;;
40515;SDS011;26216;53.724;9.898;2023-05-14T10:11:36;2.35;;;1.63;;
40515;SDS011;26216;53.724;9.898;2023-05-14T10:16:33;1.92;;;1.63;;
40515;SDS011;26216;53.724;9.898;2023-05-14T10:19:09;2.55;;;1.73;;
40515;SDS011;26216;53.724;9.898;2023-05-14T10:21:36;4.13;;;1.80;;
40515;SDS011;26216;53.724;9.898;2023-05-14T10:24:05;2.45;;;1.67;;
40515;SDS011;26216;53.724;9.898;2023-05-14T10:26:34;2.00;;;1.60;;
40515;SDS011;26216;53.724;9.898;2023-05-14T10:29:05;2.78;;;1.65;;
40515;SDS011;26216;53.724;9.898;2023-05-14T10:31:48;2.13;;;1.70;;
40515;SDS011;26216;53.724;9.898;2023-05-14T10:37:03;2.40;;;1.75;;
40515;SDS011;26216;53.724;9.898;2023-05-14T10:42:07;2.33;;;1.58;;
40515;SDS011;26216;53.724;9.898;2023-05-14T10:44:35;2.05;;;1.50;;
40515;SDS011;26216;53.724;9.898;2023-05-14T10:47:30;2.20;;;1.50;;
40515;SDS011;26216;53.724;9.898;2023-05-14T10:49:57;1.77;;;1.45;;
40515;SDS011;26216;53.724;9.898;2023-05-14T10:52:24;2.40;;;1.50;;
40515;SDS011;26216;53.724;9.898;2023-05-14T10:54:54;1.90;;;1.33;;
40515;SDS011;26216;53.724;9.898;2023-05-14T10:57:22;1.63;;;1.52;;
40515;SDS011;26216;53.724;9.898;2023-05-14T10:59:51;1.95;;;1.65;;
40515;SDS011;26216;53.724;9.898;2023-05-14T11:02:26;2.13;;;1.50;;
40515;SDS011;26216;53.724;9.898;2023-05-14T11:04:59;1.80;;;1.40;;
40515;SDS011;26216;53.724;9.898;2023-05-14T11:07:30;2.03;;;1.60;;
40515;SDS011;26216;53.724;9.898;2023-05-14T11:12:35;1.97;;;1.60;;
40515;SDS011;26216;53.724;9.898;2023-05-14T11:15:03;2.08;;;1.60;;
40515;SDS011;26216;53.724;9.898;2023-05-14T11:17:34;2.55;;;1.65;;
40515;SDS011;26216;53.724;9.898;2023-05-14T11:20:01;2.05;;;1.45;;
40515;SDS011;26216;53.724;9.898;2023-05-14T11:22:27;2.28;;;1.83;;
40515;SDS011;26216;53.724;9.898;2023-05-14T11:24:53;3.88;;;1.77;;
40515;SDS011;26216;53.724;9.898;2023-05-14T11:27:20;3.20;;;1.75;;
40515;SDS011;26216;53.724;9.898;2023-05-14T11:29:48;2.72;;;1.80;;
40515;SDS011;26216;53.724;9.898;2023-05-14T11:32:15;2.15;;;1.60;;
40515;SDS011;26216;53.724;9.898;2023-05-14T11:34:42;1.90;;;1.50;;
40515;SDS011;26216;53.724;9.898;2023-05-14T11:37:09;2.95;;;1.50;;
40515;SDS011;26216;53.724;9.898;2023-05-14T11:39:37;2.40;;;1.80;;
40515;SDS011;26216;53.724;9.898;2023-05-14T11:42:10;2.08;;;1.50;;
40515;SDS011;26216;53.724;9.898;2023-05-14T11:44:39;3.15;;;2.00;;
40515;SDS011;26216;53.724;9.898;2023-05-14T11:47:06;3.53;;;1.90;;
40515;SDS011;26216;53.724;9.898;2023-05-14T11:49:32;2.30;;;1.52;;
40515;SDS011;26216;53.724;9.898;2023-05-14T11:52:02;2.30;;;1.70;;
40515;SDS011;26216;53.724;9.898;2023-05-14T11:54:29;2.08;;;1.67;;
40515;SDS011;26216;53.724;9.898;2023-05-14T11:56:56;2.10;;;1.65;;
40515;SDS011;26216;53.724;9.898;2023-05-14T11:59:23;2.00;;;1.48;;
40515;SDS011;26216;53.724;9.898;2023-05-14T12:01:53;2.65;;;1.50;;
40515;SDS011;26216;53.724;9.898;2023-05-14T12:04:19;2.03;;;1.52;;
40515;SDS011;26216;53.724;9.898;2023-05-14T12:06:50;2.83;;;1.80;;
40515;SDS011;26216;53.724;9.898;2023-05-14T12:09:20;3.22;;;1.85;;
40515;SDS011;26216;53.724;9.898;2023-05-14T12:11:48;2.00;;;1.70;;
40515;SDS011;26216;53.724;9.898;2023-05-14T12:14:18;2.17;;;1.70;;
40515;SDS011;26216;53.724;9.898;2023-05-14T12:19:14;2.15;;;1.80;;
40515;SDS011;26216;53.724;9.898;2023-05-14T12:21:42;2.50;;;1.70;;
40515;SDS011;26216;53.724;9.898;2023-05-14T12:24:11;2.65;;;1.80;;
40515;SDS011;26216;53.724;9.898;2023-05-14T12:26:49;2.08;;;1.60;;
40515;SDS011;26216;53.724;9.898;2023-05-14T12:29:16;2.33;;;1.63;;
40515;SDS011;26216;53.724;9.898;2023-05-14T12:31:44;2.75;;;1.83;;
40515;SDS011;26216;53.724;9.898;2023-05-14T12:34:11;1.98;;;1.65;;
40515;SDS011;26216;53.724;9.898;2023-05-14T12:36:37;2.33;;;1.83;;
40515;SDS011;26216;53.724;9.898;2023-05-14T12:39:03;2.40;;;2.00;;
40515;SDS011;26216;53.724;9.898;2023-05-14T12:41:30;2.47;;;2.00;;
40515;SDS011;26216;53.724;9.898;2023-05-14T12:43:58;2.63;;;1.92;;
40515;SDS011;26216;53.724;9.898;2023-05-14T12:46:25;2.20;;;1.67;;
40515;SDS011;26216;53.724;9.898;2023-05-14T12:48:53;2.90;;;1.60;;
40515;SDS011;26216;53.724;9.898;2023-05-14T12:51:19;2.72;;;1.90;;
40515;SDS011;26216;53.724;9.898;2023-05-14T12:53:46;2.80;;;1.85;;
40515;SDS011;26216;53.724;9.898;2023-05-14T12:56:12;2.17;;;1.70;;
40515;SDS011;26216;53.724;9.898;2023-05-14T12:58:38;1.65;;;1.42;;
40515;SDS011;26216;53.724;9.898;2023-05-14T13:01:04;2.00;;;1.55;;
40515;SDS011;26216;53.724;9.898;2023-05-14T13:03:31;1.88;;;1.40;;
40515;SDS011;26216;53.724;9.898;2023-05-14T13:05:57;2.50;;;1.90;;
40515;SDS011;26216;53.724;9.898;2023-05-14T13:08:24;3.33;;;2.35;;
40515;SDS011;26216;53.724;9.898;2023-05-14T13:10:50;2.60;;;2.20;;
40515;SDS011;26216;53.724;9.898;2023-05-14T13:13:17;2.72;;;1.80;;
40515;SDS011;26216;53.724;9.898;2023-05-14T13:15:43;2.72;;;1.80;;
40515;SDS011;26216;53.724;9.898;2023-05-14T13:18:11;3.17;;;1.70;;
40515;SDS011;26216;53.724;9.898;2023-05-14T13:20:38;2.85;;;2.20;;
40515;SDS011;26216;53.724;9.898;2023-05-14T13:23:04;2.42;;;2.03;;
40515;SDS011;26216;53.724;9.898;2023-05-14T13:25:30;3.35;;;1.85;;
40515;SDS011;26216;53.724;9.898;2023-05-14T13:27:55;3.65;;;2.13;;
40515;SDS011;26216;53.724;9.898;2023-05-14T13:30:21;2.78;;;1.80;;
40515;SDS011;26216;53.724;9.898;2023-05-14T13:32:47;3.17;;;2.30;;
40515;SDS011;26216;53.724;9.898;2023-05-14T13:35:14;3.00;;;1.95;;
40515;SDS011;26216;53.724;9.898;2023-05-14T13:37:41;4.13;;;1.98;;
40515;SDS011;26216;53.724;9.898;2023-05-14T13:40:08;3.88;;;2.05;;
40515;SDS011;26216;53.724;9.898;2023-05-14T13:42:34;3.47;;;1.90;;
40515;SDS011;26216;53.724;9.898;2023-05-14T13:45:01;3.42;;;2.17;;
40515;SDS011;26216;53.724;9.898;2023-05-14T13:47:28;2.30;;;1.90;;
40515;SDS011;26216;53.724;9.898;2023-05-14T13:49:54;3.38;;;2.22;;
40515;SDS011;26216;53.724;9.898;2023-05-14T13:52:23;3.50;;;1.98;;
40515;SDS011;26216;53.724;9.898;2023-05-14T13:54:49;2.35;;;1.90;;
40515;SDS011;26216;53.724;9.898;2023-05-14T13:57:15;2.22;;;1.85;;
40515;SDS011;26216;53.724;9.898;2023-05-14T13:59:41;2.47;;;1.95;;
40515;SDS011;26216;53.724;9.898;2023-05-14T14:02:07;2.45;;;2.03;;
40515;SDS011;26216;53.724;9.898;2023-05-14T14:04:33;3.88;;;2.17;;
40515;SDS011;26216;53.724;9.898;2023-05-14T14:07:00;2.92;;;2.10;;
40515;SDS011;26216;53.724;9.898;2023-05-14T14:09:25;2.50;;;1.55;;
40515;SDS011;26216;53.724;9.898;2023-05-14T14:11:51;3.10;;;1.77;;
40515;SDS011;26216;53.724;9.898;2023-05-14T14:14:17;5.75;;;2.10;;
40515;SDS011;26216;53.724;9.898;2023-05-14T14:16:43;2.33;;;1.80;;
40515;SDS011;26216;53.724;9.898;2023-05-14T14:19:09;2.10;;;1.65;;
40515;SDS011;26216;53.724;9.898;2023-05-14T14:21:35;2.92;;;1.77;;
40515;SDS011;26216;53.724;9.898;2023-05-14T14:24:04;3.20;;;1.55;;
40515;SDS011;26216;53.724;9.898;2023-05-14T14:26:30;4.85;;;1.98;;
40515;SDS011;26216;53.724;9.898;2023-05-14T14:28:56;2.00;;;1.63;;
40515;SDS011;26216;53.724;9.898;2023-05-14T14:31:22;2.47;;;1.70;;
40515;SDS011;26216;53.724;9.898;2023-05-14T14:33:48;2.08;;;1.63;;
40515;SDS011;26216;53.724;9.898;2023-05-14T14:36:14;2.83;;;1.75;;
40515;SDS011;26216;53.724;9.898;2023-05-14T14:38:40;2.92;;;1.80;;
40515;SDS011;26216;53.724;9.898;2023-05-14T14:41:06;3.28;;;2.10;;
40515;SDS011;26216;53.724;9.898;2023-05-14T14:43:34;2.53;;;1.90;;
40515;SDS011;26216;53.724;9.898;2023-05-14T14:46:01;3.20;;;2.10;;
40515;SDS011;26216;53.724;9.898;2023-05-14T14:48:31;3.13;;;1.83;;
40515;SDS011;26216;53.724;9.898;2023-05-14T14:51:03;4.05;;;2.17;;
40515;SDS011;26216;53.724;9.898;2023-05-14T14:53:31;2.47;;;1.50;;
40515;SDS011;26216;53.724;9.898;2023-05-14T14:55:59;2.13;;;1.52;;
40515;SDS011;26216;53.724;9.898;2023-05-14T14:58:26;2.47;;;1.60;;
40515;SDS011;26216;53.724;9.898;2023-05-14T15:00:53;2.60;;;1.85;;
40515;SDS011;26216;53.724;9.898;2023-05-14T15:03:20;2.13;;;1.35;;
40515;SDS011;26216;53.724;9.898;2023-05-14T15:05:47;22.52;;;3.05;;